sensor_id;sensor_type;location;lat;lon;timestamp;pressure;altitude;pressure_sealevel;temperature;humidity
39223;BME280;24936;46.328;11.026;2023-04-22T00:02:15;94251.38;;;5.50;92.36
39223;BME280;24936;46.328;11.026;2023-04-22T00:04:42;94235.47;;;5.54;92.20
39223;BME280;24936;46.328;11.026;2023-04-22T00:07:11;94231.69;;;5.46;92.56
39223;BME280;24936;46.328;11.026;2023-04-22T00:09:37;94237.19;;;5.30;92.65
39223;BME280;24936;46.328;11.026;2023-04-22T00:12:02;94227.81;;;5.28;93.18
39223;BME280;24936;46.328;11.026;2023-04-22T00:14:28;94237.09;;;5.32;93.18
39223;BME280;24936;46.328;11.026;2023-04-22T00:16:54;94229.78;;;5.48;92.11
39223;BME280;24936;46.328;11.026;2023-04-22T00:19:20;94230.44;;;5.39;91.86
39223;BME280;24936;46.328;11.026;2023-04-22T00:21:46;94237.28;;;5.17;92.89
39223;BME280;24936;46.328;11.026;2023-04-22T00:24:11;94231.75;;;5.09;93.35
39223;BME280;24936;46.328;11.026;2023-04-22T00:26:37;94240.94;;;4.90;93.52
39223;BME280;24936;46.328;11.026;2023-04-22T00:29:02;94237.94;;;4.84;93.60
39223;BME280;24936;46.328;11.026;2023-04-22T00:31:28;94241.91;;;4.52;93.78
39223;BME280;24936;46.328;11.026;2023-04-22T00:33:53;94231.34;;;4.91;94.30
39223;BME280;24936;46.328;11.026;2023-04-22T00:36:19;94233.00;;;4.92;93.76
39223;BME280;24936;46.328;11.026;2023-04-22T00:38:47;94234.44;;;4.72;93.96
39223;BME280;24936;46.328;11.026;2023-04-22T00:41:14;94241.69;;;4.55;94.33
39223;BME280;24936;46.328;11.026;2023-04-22T00:43:39;94232.72;;;4.59;94.91
39223;BME280;24936;46.328;11.026;2023-04-22T00:46:05;94235.72;;;4.53;94.77
39223;BME280;24936;46.328;11.026;2023-04-22T00:48:30;94236.53;;;4.67;94.93
39223;BME280;24936;46.328;11.026;2023-04-22T00:50:56;94231.63;;;4.75;94.44
39223;BME280;24936;46.328;11.026;2023-04-22T00:53:21;94232.75;;;4.71;94.06
39223;BME280;24936;46.328;11.026;2023-04-22T00:55:47;94232.72;;;4.59;94.21
39223;BME280;24936;46.328;11.026;2023-04-22T00:58:13;94237.13;;;4.46;94.10
39223;BME280;24936;46.328;11.026;2023-04-22T01:00:38;94232.97;;;4.43;94.51
39223;BME280;24936;46.328;11.026;2023-04-22T01:03:05;94243.16;;;4.47;95.17
39223;BME280;24936;46.328;11.026;2023-04-22T01:05:31;94237.66;;;4.51;95.10
39223;BME280;24936;46.328;11.026;2023-04-22T01:07:57;94231.59;;;4.51;95.00
39223;BME280;24936;46.328;11.026;2023-04-22T01:10:23;94236.19;;;4.47;94.71
39223;BME280;24936;46.328;11.026;2023-04-22T01:12:49;94229.72;;;4.40;94.86
39223;BME280;24936;46.328;11.026;2023-04-22T01:15:14;94235.06;;;4.25;95.02
39223;BME280;24936;46.328;11.026;2023-04-22T01:17:40;94240.28;;;4.25;95.46
39223;BME280;24936;46.328;11.026;2023-04-22T01:20:06;94240.06;;;4.28;95.30
39223;BME280;24936;46.328;11.026;2023-04-22T01:22:36;94234.13;;;4.26;95.30
39223;BME280;24936;46.328;11.026;2023-04-22T01:25:04;94236.94;;;4.36;95.62
39223;BME280;24936;46.328;11.026;2023-04-22T01:27:30;94233.91;;;4.42;95.30
39223;BME280;24936;46.328;11.026;2023-04-22T01:29:56;94240.28;;;4.25;95.21
39223;BME280;24936;46.328;11.026;2023-04-22T01:32:21;94237.19;;;4.07;95.48
39223;BME280;24936;46.328;11.026;2023-04-22T01:34:47;94244.06;;;4.21;95.99
39223;BME280;24936;46.328;11.026;2023-04-22T01:37:12;94248.44;;;4.08;96.04
39223;BME280;24936;46.328;11.026;2023-04-22T01:39:38;94244.25;;;4.18;96.32
39223;BME280;24936;46.328;11.026;2023-04-22T01:42:04;94235.59;;;4.31;95.90
39223;BME280;24936;46.328;11.026;2023-04-22T01:44:29;94241.13;;;4.26;95.38
39223;BME280;24936;46.328;11.026;2023-04-22T01:46:55;94239.59;;;4.23;95.65
39223;BME280;24936;46.328;11.026;2023-04-22T01:49:21;94239.47;;;4.25;95.20
39223;BME280;24936;46.328;11.026;2023-04-22T01:51:46;94234.25;;;4.12;95.38
39223;BME280;24936;46.328;11.026;2023-04-22T01:54:12;94248.22;;;4.11;95.47
39223;BME280;24936;46.328;11.026;2023-04-22T01:56:37;94247.69;;;4.19;95.71
39223;BME280;24936;46.328;11.026;2023-04-22T01:59:05;94250.22;;;4.07;95.59
39223;BME280;24936;46.328;11.026;2023-04-22T02:01:31;94252.31;;;4.02;95.92
39223;BME280;24936;46.328;11.026;2023-04-22T02:03:56;94257.41;;;4.04;96.09
39223;BME280;24936;46.328;11.026;2023-04-22T02:06:22;94248.13;;;4.00;96.29
39223;BME280;24936;46.328;11.026;2023-04-22T02:08:47;94253.44;;;3.85;96.15
39223;BME280;24936;46.328;11.026;2023-04-22T02:11:13;94248.88;;;4.02;96.51
39223;BME280;24936;46.328;11.026;2023-04-22T02:13:39;94249.06;;;4.24;96.10
39223;BME280;24936;46.328;11.026;2023-04-22T02:16:05;94244.34;;;4.29;95.45
39223;BME280;24936;46.328;11.026;2023-04-22T02:18:31;94254.06;;;4.15;95.23
39223;BME280;24936;46.328;11.026;2023-04-22T02:20:56;94250.72;;;4.00;95.83
39223;BME280;24936;46.328;11.026;2023-04-22T02:23:22;94243.25;;;4.08;95.76
39223;BME280;24936;46.328;11.026;2023-04-22T02:25:49;94253.88;;;4.05;96.13
39223;BME280;24936;46.328;11.026;2023-04-22T02:28:15;94246.97;;;3.91;95.99
39223;BME280;24936;46.328;11.026;2023-04-22T02:30:40;94252.09;;;3.79;96.08
39223;BME280;24936;46.328;11.026;2023-04-22T02:33:06;94250.25;;;3.94;96.46
39223;BME280;24936;46.328;11.026;2023-04-22T02:35:31;94246.88;;;4.05;95.94
39223;BME280;24936;46.328;11.026;2023-04-22T02:37:56;94244.19;;;3.94;96.30
39223;BME280;24936;46.328;11.026;2023-04-22T02:40:22;94243.88;;;3.86;96.54
39223;BME280;24936;46.328;11.026;2023-04-22T02:42:48;94239.94;;;3.80;96.44
39223;BME280;24936;46.328;11.026;2023-04-22T02:45:13;94238.47;;;3.76;96.88
39223;BME280;24936;46.328;11.026;2023-04-22T02:47:39;94245.00;;;3.81;96.72
39223;BME280;24936;46.328;11.026;2023-04-22T02:50:05;94241.91;;;3.89;96.48
39223;BME280;24936;46.328;11.026;2023-04-22T02:52:32;94236.16;;;3.84;96.31
39223;BME280;24936;46.328;11.026;2023-04-22T02:54:58;94243.16;;;3.83;96.47
39223;BME280;24936;46.328;11.026;2023-04-22T02:57:24;94242.75;;;3.90;96.53
39223;BME280;24936;46.328;11.026;2023-04-22T02:59:50;94229.00;;;3.88;96.21
39223;BME280;24936;46.328;11.026;2023-04-22T03:02:15;94225.97;;;3.81;96.24
39223;BME280;24936;46.328;11.026;2023-04-22T03:04:41;94232.22;;;3.91;96.59
39223;BME280;24936;46.328;11.026;2023-04-22T03:07:06;94228.47;;;3.95;96.25
39223;BME280;24936;46.328;11.026;2023-04-22T03:09:32;94235.34;;;3.83;96.35
39223;BME280;24936;46.328;11.026;2023-04-22T03:11:57;94227.00;;;3.91;96.44
39223;BME280;24936;46.328;11.026;2023-04-22T03:14:23;94231.78;;;3.97;96.17
39223;BME280;24936;46.328;11.026;2023-04-22T03:16:48;94234.28;;;3.86;96.18
39223;BME280;24936;46.328;11.026;2023-04-22T03:19:14;94231.19;;;3.81;96.20
39223;BME280;24936;46.328;11.026;2023-04-22T03:21:40;94231.56;;;4.01;96.20
39223;BME280;24936;46.328;11.026;2023-04-22T03:24:06;94226.56;;;3.97;95.98
39223;BME280;24936;46.328;11.026;2023-04-22T03:26:31;94237.31;;;3.93;96.04
39223;BME280;24936;46.328;11.026;2023-04-22T03:28:57;94234.94;;;3.90;96.23
39223;BME280;24936;46.328;11.026;2023-04-22T03:31:22;94236.59;;;3.78;96.10
39223;BME280;24936;46.328;11.026;2023-04-22T03:33:48;94232.19;;;3.78;96.45
39223;BME280;24936;46.328;11.026;2023-04-22T03:36:13;94239.19;;;3.78;96.55
39223;BME280;24936;46.328;11.026;2023-04-22T03:38:39;94233.25;;;3.76;96.82
39223;BME280;24936;46.328;11.026;2023-04-22T03:41:05;94236.06;;;3.73;96.76
39223;BME280;24936;46.328;11.026;2023-04-22T03:43:30;94233.97;;;3.65;97.05
39223;BME280;24936;46.328;11.026;2023-04-22T03:45:56;94242.44;;;3.69;96.94
39223;BME280;24936;46.328;11.026;2023-04-22T03:48:21;94242.72;;;3.64;97.16
39223;BME280;24936;46.328;11.026;2023-04-22T03:50:47;94240.41;;;3.59;97.26
39223;BME280;24936;46.328;11.026;2023-04-22T03:53:12;94238.34;;;3.64;97.28
39223;BME280;24936;46.328;11.026;2023-04-22T03:55:38;94240.53;;;3.58;97.35
39223;BME280;24936;46.328;11.026;2023-04-22T03:58:03;94236.56;;;3.65;97.67
39223;BME280;24936;46.328;11.026;2023-04-22T04:00:29;94239.28;;;3.63;97.89
39223;BME280;24936;46.328;11.026;2023-04-22T04:02:54;94240.31;;;3.74;97.60
39223;BME280;24936;46.328;11.026;2023-04-22T04:05:20;94236.25;;;3.70;97.66
39223;BME280;24936;46.328;11.026;2023-04-22T04:07:45;94238.84;;;3.70;97.38
39223;BME280;24936;46.328;11.026;2023-04-22T04:10:11;94238.16;;;3.67;97.54
39223;BME280;24936;46.328;11.026;2023-04-22T04:12:36;94246.25;;;3.63;97.55
39223;BME280;24936;46.328;11.026;2023-04-22T04:15:02;94237.00;;;3.72;97.50
39223;BME280;24936;46.328;11.026;2023-04-22T04:17:28;94242.50;;;3.67;97.45
39223;BME280;24936;46.328;11.026;2023-04-22T04:19:54;94241.91;;;3.63;97.31
39223;BME280;24936;46.328;11.026;2023-04-22T04:22:19;94241.78;;;3.78;97.62
39223;BME280;24936;46.328;11.026;2023-04-22T04:24:46;94239.72;;;3.83;97.17
39223;BME280;24936;46.328;11.026;2023-04-22T04:27:12;94237.13;;;3.83;97.01
39223;BME280;24936;46.328;11.026;2023-04-22T04:29:39;94229.50;;;4.06;96.37
39223;BME280;24936;46.328;11.026;2023-04-22T04:32:08;94238.03;;;4.08;95.56
39223;BME280;24936;46.328;11.026;2023-04-22T04:34:34;94239.59;;;3.97;95.34
39223;BME280;24936;46.328;11.026;2023-04-22T04:37:01;94236.97;;;3.97;95.49
39223;BME280;24936;46.328;11.026;2023-04-22T04:39:27;94236.38;;;4.07;95.31
39223;BME280;24936;46.328;11.026;2023-04-22T04:41:53;94228.75;;;4.04;94.72
39223;BME280;24936;46.328;11.026;2023-04-22T04:44:23;94233.16;;;3.90;94.91
39223;BME280;24936;46.328;11.026;2023-04-22T04:46:51;94236.28;;;3.95;95.36
39223;BME280;24936;46.328;11.026;2023-04-22T04:49:16;94232.19;;;4.04;95.29
39223;BME280;24936;46.328;11.026;2023-04-22T04:51:42;94240.13;;;4.03;95.39
39223;BME280;24936;46.328;11.026;2023-04-22T04:54:07;94238.44;;;4.02;95.42
39223;BME280;24936;46.328;11.026;2023-04-22T04:56:33;94241.88;;;4.15;95.72
39223;BME280;24936;46.328;11.026;2023-04-22T04:58:58;94241.13;;;4.26;95.26
39223;BME280;24936;46.328;11.026;2023-04-22T05:01:24;94244.13;;;4.33;95.33
39223;BME280;24936;46.328;11.026;2023-04-22T05:03:49;94245.59;;;4.37;95.41
39223;BME280;24936;46.328;11.026;2023-04-22T05:06:15;94245.28;;;4.41;95.01
39223;BME280;24936;46.328;11.026;2023-04-22T05:08:40;94247.34;;;4.49;95.07
39223;BME280;24936;46.328;11.026;2023-04-22T05:11:06;94246.28;;;4.52;94.83
39223;BME280;24936;46.328;11.026;2023-04-22T05:13:31;94251.50;;;4.52;94.64
39223;BME280;24936;46.328;11.026;2023-04-22T05:15:57;94249.75;;;4.52;94.69
39223;BME280;24936;46.328;11.026;2023-04-22T05:18:23;94251.28;;;4.55;94.37
39223;BME280;24936;46.328;11.026;2023-04-22T05:20:49;94259.66;;;4.47;94.15
39223;BME280;24936;46.328;11.026;2023-04-22T05:23:14;94264.66;;;4.50;94.24
39223;BME280;24936;46.328;11.026;2023-04-22T05:25:40;94258.78;;;4.59;94.13
39223;BME280;24936;46.328;11.026;2023-04-22T05:28:05;94256.59;;;4.53;93.95
39223;BME280;24936;46.328;11.026;2023-04-22T05:30:31;94259.28;;;4.65;93.12
39223;BME280;24936;46.328;11.026;2023-04-22T05:32:56;94262.09;;;4.62;92.98
39223;BME280;24936;46.328;11.026;2023-04-22T05:35:22;94264.53;;;4.39;93.50
39223;BME280;24936;46.328;11.026;2023-04-22T05:37:47;94269.75;;;4.39;94.44
39223;BME280;24936;46.328;11.026;2023-04-22T05:40:13;94263.59;;;4.40;94.56
39223;BME280;24936;46.328;11.026;2023-04-22T05:42:38;94269.75;;;4.39;94.64
39223;BME280;24936;46.328;11.026;2023-04-22T05:45:04;94266.75;;;4.32;95.13
39223;BME280;24936;46.328;11.026;2023-04-22T05:47:30;94268.31;;;4.35;95.41
39223;BME280;24936;46.328;11.026;2023-04-22T05:49:55;94272.16;;;4.42;94.98
39223;BME280;24936;46.328;11.026;2023-04-22T05:52:21;94269.47;;;4.31;94.82
39223;BME280;24936;46.328;11.026;2023-04-22T05:54:46;94269.75;;;4.39;95.31
39223;BME280;24936;46.328;11.026;2023-04-22T05:57:12;94263.22;;;4.20;95.55
39223;BME280;24936;46.328;11.026;2023-04-22T05:59:37;94267.00;;;4.03;95.94
39223;BME280;24936;46.328;11.026;2023-04-22T06:02:03;94271.25;;;4.04;96.36
39223;BME280;24936;46.328;11.026;2023-04-22T06:04:28;94271.78;;;4.22;96.43
39223;BME280;24936;46.328;11.026;2023-04-22T06:06:54;94274.28;;;4.24;96.48
39223;BME280;24936;46.328;11.026;2023-04-22T06:09:20;94277.56;;;4.52;96.62
39223;BME280;24936;46.328;11.026;2023-04-22T06:11:46;94272.75;;;4.58;96.55
39223;BME280;24936;46.328;11.026;2023-04-22T06:14:11;94274.53;;;4.82;95.90
39223;BME280;24936;46.328;11.026;2023-04-22T06:16:37;94264.03;;;5.08;94.61
39223;BME280;24936;46.328;11.026;2023-04-22T06:19:04;94267.63;;;5.43;93.89
39223;BME280;24936;46.328;11.026;2023-04-22T06:21:30;94264.72;;;5.70;92.25
39223;BME280;24936;46.328;11.026;2023-04-22T06:23:58;94257.63;;;5.95;91.29
39223;BME280;24936;46.328;11.026;2023-04-22T06:26:24;94260.78;;;6.23;89.84
39223;BME280;24936;46.328;11.026;2023-04-22T06:28:50;94264.25;;;6.35;87.99
39223;BME280;24936;46.328;11.026;2023-04-22T06:31:15;94260.78;;;6.57;87.72
39223;BME280;24936;46.328;11.026;2023-04-22T06:33:41;94267.44;;;6.72;86.96
39223;BME280;24936;46.328;11.026;2023-04-22T06:36:07;94270.03;;;6.84;85.13
39223;BME280;24936;46.328;11.026;2023-04-22T06:38:32;94263.56;;;6.99;83.94
39223;BME280;24936;46.328;11.026;2023-04-22T06:41:07;94259.13;;;7.11;83.38
39223;BME280;24936;46.328;11.026;2023-04-22T06:43:32;94261.09;;;7.30;84.19
39223;BME280;24936;46.328;11.026;2023-04-22T06:45:58;94264.91;;;7.59;82.28
39223;BME280;24936;46.328;11.026;2023-04-22T06:48:26;94267.50;;;7.59;80.89
39223;BME280;24936;46.328;11.026;2023-04-22T06:50:52;94267.34;;;7.72;82.38
39223;BME280;24936;46.328;11.026;2023-04-22T06:53:20;94269.91;;;7.83;80.74
39223;BME280;24936;46.328;11.026;2023-04-22T06:55:48;94266.41;;;8.04;79.96
39223;BME280;24936;46.328;11.026;2023-04-22T06:58:25;94268.72;;;8.18;79.18
39223;BME280;24936;46.328;11.026;2023-04-22T07:00:50;94270.75;;;8.15;78.95
39223;BME280;24936;46.328;11.026;2023-04-22T07:03:16;94277.84;;;8.24;78.66
39223;BME280;24936;46.328;11.026;2023-04-22T07:05:41;94267.09;;;8.48;79.06
39223;BME280;24936;46.328;11.026;2023-04-22T07:08:07;94264.97;;;8.63;78.10
39223;BME280;24936;46.328;11.026;2023-04-22T07:10:32;94268.19;;;8.77;77.48
39223;BME280;24936;46.328;11.026;2023-04-22T07:13:01;94272.44;;;8.78;76.25
39223;BME280;24936;46.328;11.026;2023-04-22T07:15:26;94274.13;;;8.88;75.67
39223;BME280;24936;46.328;11.026;2023-04-22T07:17:52;94272.22;;;9.00;77.11
39223;BME280;24936;46.328;11.026;2023-04-22T07:20:17;94261.06;;;9.08;76.16
39223;BME280;24936;46.328;11.026;2023-04-22T07:22:43;94264.78;;;9.15;75.78
39223;BME280;24936;46.328;11.026;2023-04-22T07:25:09;94265.63;;;9.16;75.41
39223;BME280;24936;46.328;11.026;2023-04-22T07:27:34;94270.03;;;9.15;75.48
39223;BME280;24936;46.328;11.026;2023-04-22T07:30:04;94266.63;;;9.25;75.23
39223;BME280;24936;46.328;11.026;2023-04-22T07:32:30;94260.94;;;9.29;77.23
39223;BME280;24936;46.328;11.026;2023-04-22T07:34:55;94262.47;;;9.32;76.21
39223;BME280;24936;46.328;11.026;2023-04-22T07:37:21;94252.91;;;9.21;77.10
39223;BME280;24936;46.328;11.026;2023-04-22T07:39:46;94251.81;;;9.24;76.47
39223;BME280;24936;46.328;11.026;2023-04-22T07:42:12;94258.44;;;9.28;77.66
39223;BME280;24936;46.328;11.026;2023-04-22T07:44:37;94253.78;;;9.31;77.61
39223;BME280;24936;46.328;11.026;2023-04-22T07:47:03;94257.06;;;9.33;75.24
39223;BME280;24936;46.328;11.026;2023-04-22T07:49:31;94251.00;;;9.53;74.70
39223;BME280;24936;46.328;11.026;2023-04-22T07:51:57;94243.38;;;9.79;72.84
39223;BME280;24936;46.328;11.026;2023-04-22T07:54:22;94247.66;;;9.90;72.36
39223;BME280;24936;46.328;11.026;2023-04-22T07:56:48;94243.34;;;9.99;70.83
39223;BME280;24936;46.328;11.026;2023-04-22T07:59:13;94251.88;;;10.10;70.94
39223;BME280;24936;46.328;11.026;2023-04-22T08:01:39;94253.53;;;10.21;71.94
39223;BME280;24936;46.328;11.026;2023-04-22T08:04:04;94242.63;;;10.06;71.46
39223;BME280;24936;46.328;11.026;2023-04-22T08:06:30;94242.00;;;10.32;74.42
39223;BME280;24936;46.328;11.026;2023-04-22T08:08:56;94236.03;;;10.50;72.77
39223;BME280;24936;46.328;11.026;2023-04-22T08:11:21;94238.59;;;10.60;72.66
39223;BME280;24936;46.328;11.026;2023-04-22T08:13:47;94236.03;;;11.06;72.57
39223;BME280;24936;46.328;11.026;2023-04-22T08:16:12;94231.00;;;11.12;69.17
39223;BME280;24936;46.328;11.026;2023-04-22T08:18:37;94235.44;;;11.66;70.78
39223;BME280;24936;46.328;11.026;2023-04-22T08:21:03;94237.06;;;12.03;67.84
39223;BME280;24936;46.328;11.026;2023-04-22T08:23:29;94226.81;;;12.27;64.48
39223;BME280;24936;46.328;11.026;2023-04-22T08:25:54;94233.19;;;12.77;64.89
39223;BME280;24936;46.328;11.026;2023-04-22T08:28:20;94230.13;;;13.06;63.24
39223;BME280;24936;46.328;11.026;2023-04-22T08:30:45;94226.47;;;13.58;61.31
39223;BME280;24936;46.328;11.026;2023-04-22T08:33:11;94224.66;;;14.09;59.44
39223;BME280;24936;46.328;11.026;2023-04-22T08:35:37;94215.41;;;14.13;59.24
39223;BME280;24936;46.328;11.026;2023-04-22T08:38:02;94211.88;;;14.93;59.12
39223;BME280;24936;46.328;11.026;2023-04-22T08:40:28;94217.19;;;14.85;57.46
39223;BME280;24936;46.328;11.026;2023-04-22T08:42:54;94215.88;;;15.44;58.25
39223;BME280;24936;46.328;11.026;2023-04-22T08:45:20;94214.69;;;15.23;56.79
39223;BME280;24936;46.328;11.026;2023-04-22T08:47:47;94211.34;;;15.29;57.36
39223;BME280;24936;46.328;11.026;2023-04-22T08:50:13;94204.41;;;15.75;54.64
39223;BME280;24936;46.328;11.026;2023-04-22T08:52:38;94201.81;;;15.90;55.10
39223;BME280;24936;46.328;11.026;2023-04-22T08:55:06;94192.47;;;16.32;51.73
39223;BME280;24936;46.328;11.026;2023-04-22T08:57:31;94194.41;;;16.54;50.20
39223;BME280;24936;46.328;11.026;2023-04-22T08:59:58;94193.50;;;16.76;51.56
39223;BME280;24936;46.328;11.026;2023-04-22T09:02:25;94189.72;;;17.37;47.15
39223;BME280;24936;46.328;11.026;2023-04-22T09:04:51;94179.88;;;17.75;50.31
39223;BME280;24936;46.328;11.026;2023-04-22T09:07:22;94175.03;;;17.85;48.26
39223;BME280;24936;46.328;11.026;2023-04-22T09:09:49;94165.72;;;18.53;45.44
39223;BME280;24936;46.328;11.026;2023-04-22T09:12:14;94166.84;;;19.20;47.76
39223;BME280;24936;46.328;11.026;2023-04-22T09:14:43;94169.44;;;19.69;44.85
39223;BME280;24936;46.328;11.026;2023-04-22T09:17:08;94162.88;;;20.32;43.79
39223;BME280;24936;46.328;11.026;2023-04-22T09:19:34;94174.81;;;20.09;42.30
39223;BME280;24936;46.328;11.026;2023-04-22T09:21:59;94157.56;;;21.50;38.83
39223;BME280;24936;46.328;11.026;2023-04-22T09:24:26;94155.66;;;21.57;37.81
39223;BME280;24936;46.328;11.026;2023-04-22T09:26:54;94154.53;;;21.39;37.63
39223;BME280;24936;46.328;11.026;2023-04-22T09:29:19;94151.91;;;20.74;41.34
39223;BME280;24936;46.328;11.026;2023-04-22T09:31:49;94144.31;;;20.77;38.88
39223;BME280;24936;46.328;11.026;2023-04-22T09:34:15;94153.88;;;21.51;42.28
39223;BME280;24936;46.328;11.026;2023-04-22T09:36:41;94148.44;;;20.60;40.26
39223;BME280;24936;46.328;11.026;2023-04-22T09:39:08;94144.69;;;20.74;42.91
39223;BME280;24936;46.328;11.026;2023-04-22T09:41:36;94138.88;;;21.04;39.07
39223;BME280;24936;46.328;11.026;2023-04-22T09:44:04;94143.16;;;20.33;41.58
39223;BME280;24936;46.328;11.026;2023-04-22T09:46:31;94127.25;;;21.88;37.94
39223;BME280;24936;46.328;11.026;2023-04-22T09:48:58;94125.56;;;22.38;38.45
39223;BME280;24936;46.328;11.026;2023-04-22T09:51:25;94119.50;;;21.80;35.86
39223;BME280;24936;46.328;11.026;2023-04-22T09:56:48;94108.78;;;22.05;34.52
39223;BME280;24936;46.328;11.026;2023-04-22T09:59:24;94107.94;;;22.30;40.04
39223;BME280;24936;46.328;11.026;2023-04-22T10:01:52;94101.47;;;22.94;34.51
39223;BME280;24936;46.328;11.026;2023-04-22T10:04:18;94102.84;;;22.47;34.52
39223;BME280;24936;46.328;11.026;2023-04-22T10:06:50;94102.81;;;22.28;36.88
39223;BME280;24936;46.328;11.026;2023-04-22T10:09:17;94093.31;;;22.70;32.72
39223;BME280;24936;46.328;11.026;2023-04-22T10:11:43;94090.63;;;22.88;32.10
39223;BME280;24936;46.328;11.026;2023-04-22T10:14:09;94098.84;;;22.75;36.94
39223;BME280;24936;46.328;11.026;2023-04-22T10:16:37;94090.03;;;22.68;32.53
39223;BME280;24936;46.328;11.026;2023-04-22T10:19:05;94086.63;;;22.60;30.99
39223;BME280;24936;46.328;11.026;2023-04-22T10:21:32;94081.88;;;23.42;32.21
39223;BME280;24936;46.328;11.026;2023-04-22T10:23:59;94078.38;;;22.92;31.93
39223;BME280;24936;46.328;11.026;2023-04-22T10:26:56;94078.34;;;23.11;30.02
39223;BME280;24936;46.328;11.026;2023-04-22T10:29:23;94086.72;;;23.64;30.25
39223;BME280;24936;46.328;11.026;2023-04-22T10:34:19;94084.59;;;22.93;34.41
39223;BME280;24936;46.328;11.026;2023-04-22T10:36:56;94079.38;;;22.80;31.24
39223;BME280;24936;46.328;11.026;2023-04-22T10:39:22;94078.03;;;24.52;32.06
39223;BME280;24936;46.328;11.026;2023-04-22T10:41:57;94068.88;;;24.77;32.31
39223;BME280;24936;46.328;11.026;2023-04-22T10:44:50;94068.78;;;24.48;31.34
39223;BME280;24936;46.328;11.026;2023-04-22T10:50:23;94061.06;;;23.26;33.77
39223;BME280;24936;46.328;11.026;2023-04-22T10:52:58;94059.22;;;22.77;34.91
39223;BME280;24936;46.328;11.026;2023-04-22T10:55:48;94061.59;;;22.48;33.44
39223;BME280;24936;46.328;11.026;2023-04-22T10:58:23;94054.22;;;23.11;33.12
39223;BME280;24936;46.328;11.026;2023-04-22T11:00:52;94043.50;;;22.92;32.07
39223;BME280;24936;46.328;11.026;2023-04-22T11:03:28;94052.22;;;24.27;31.68
39223;BME280;24936;46.328;11.026;2023-04-22T11:06:17;94057.97;;;22.42;35.88
39223;BME280;24936;46.328;11.026;2023-04-22T11:08:46;94049.81;;;22.86;34.47
39223;BME280;24936;46.328;11.026;2023-04-22T11:11:12;94046.19;;;22.92;33.97
39223;BME280;24936;46.328;11.026;2023-04-22T11:13:40;94048.84;;;23.11;35.54
39223;BME280;24936;46.328;11.026;2023-04-22T11:16:08;94050.78;;;22.36;32.88
39223;BME280;24936;46.328;11.026;2023-04-22T11:18:34;94050.34;;;22.39;31.96
39223;BME280;24936;46.328;11.026;2023-04-22T11:21:04;94039.84;;;23.36;31.54
39223;BME280;24936;46.328;11.026;2023-04-22T11:23:31;94036.81;;;23.14;34.71
39223;BME280;24936;46.328;11.026;2023-04-22T11:25:59;94040.38;;;23.80;31.88
39223;BME280;24936;46.328;11.026;2023-04-22T11:28:25;94031.03;;;23.71;31.69
39223;BME280;24936;46.328;11.026;2023-04-22T11:33:35;94029.16;;;23.60;31.37
39223;BME280;24936;46.328;11.026;2023-04-22T11:36:03;94019.25;;;22.87;33.00
39223;BME280;24936;46.328;11.026;2023-04-22T11:38:28;94016.72;;;23.23;32.66
39223;BME280;24936;46.328;11.026;2023-04-22T11:40:55;94022.16;;;22.86;33.10
39223;BME280;24936;46.328;11.026;2023-04-22T11:43:22;94016.84;;;22.67;31.46
39223;BME280;24936;46.328;11.026;2023-04-22T11:45:48;94003.94;;;22.39;36.69
39223;BME280;24936;46.328;11.026;2023-04-22T11:48:14;94012.00;;;22.57;31.05
39223;BME280;24936;46.328;11.026;2023-04-22T11:50:41;94014.06;;;22.74;32.20
39223;BME280;24936;46.328;11.026;2023-04-22T11:53:16;94002.78;;;23.14;32.79
39223;BME280;24936;46.328;11.026;2023-04-22T11:55:44;94004.56;;;22.90;32.96
39223;BME280;24936;46.328;11.026;2023-04-22T12:00:41;93999.13;;;22.78;32.53
39223;BME280;24936;46.328;11.026;2023-04-22T12:03:27;93993.28;;;23.00;34.50
39223;BME280;24936;46.328;11.026;2023-04-22T12:05:57;93994.81;;;23.38;33.69
39223;BME280;24936;46.328;11.026;2023-04-22T12:11:00;93997.75;;;22.75;35.55
39223;BME280;24936;46.328;11.026;2023-04-22T12:13:33;93998.81;;;22.19;36.35
39223;BME280;24936;46.328;11.026;2023-04-22T12:16:11;93995.22;;;22.81;34.55
39223;BME280;24936;46.328;11.026;2023-04-22T12:25:19;93987.72;;;22.52;33.61
39223;BME280;24936;46.328;11.026;2023-04-22T12:27:45;93972.91;;;22.50;34.81
39223;BME280;24936;46.328;11.026;2023-04-22T12:30:10;93981.28;;;22.41;34.55
39223;BME280;24936;46.328;11.026;2023-04-22T12:32:36;93975.06;;;21.60;35.76
39223;BME280;24936;46.328;11.026;2023-04-22T12:35:02;93975.94;;;21.97;33.68
39223;BME280;24936;46.328;11.026;2023-04-22T12:37:27;93972.19;;;21.61;36.35
39223;BME280;24936;46.328;11.026;2023-04-22T12:39:53;93965.34;;;21.40;36.54
39223;BME280;24936;46.328;11.026;2023-04-22T12:42:18;93960.53;;;20.98;37.86
39223;BME280;24936;46.328;11.026;2023-04-22T12:44:44;93951.03;;;20.63;39.54
39223;BME280;24936;46.328;11.026;2023-04-22T12:47:10;93959.41;;;20.35;38.95
39223;BME280;24936;46.328;11.026;2023-04-22T12:49:36;93951.22;;;21.07;38.50
39223;BME280;24936;46.328;11.026;2023-04-22T12:52:02;93950.75;;;20.85;40.33
39223;BME280;24936;46.328;11.026;2023-04-22T12:54:28;93949.16;;;21.10;37.63
39223;BME280;24936;46.328;11.026;2023-04-22T12:57:08;93948.59;;;21.26;37.88
39223;BME280;24936;46.328;11.026;2023-04-22T12:59:34;93944.13;;;21.20;37.80
39223;BME280;24936;46.328;11.026;2023-04-22T13:02:00;93939.25;;;21.10;38.26
39223;BME280;24936;46.328;11.026;2023-04-22T13:04:25;93938.03;;;21.06;38.84
39223;BME280;24936;46.328;11.026;2023-04-22T13:06:51;93937.44;;;21.29;37.04
39223;BME280;24936;46.328;11.026;2023-04-22T13:09:22;93936.69;;;21.22;37.80
39223;BME280;24936;46.328;11.026;2023-04-22T13:11:48;93933.75;;;21.30;36.63
39223;BME280;24936;46.328;11.026;2023-04-22T13:14:13;93923.69;;;21.26;37.40
39223;BME280;24936;46.328;11.026;2023-04-22T13:16:39;93930.41;;;21.60;39.12